WGN543 HDAM-EBOS
Flight info
| Callsign | WGN543 |
|---|---|
| Flight time | N/A |
| Altitude | 32000 |
| Route | MANDA1P MANDA R775 SB UV790 FEREB N720 PSD P751 DANOG/N0493F340 P751 LXR A727 CVO L617 NOZ L551 ANTAR UN133 KPC UN137 SKP UL617 MAKED DCT LONTA/N0480F360 UL608 DOLEV DCT ODLET DCT TUVAR DCT BAREB DCT PESAT DCT DITIS DCT RAPET Z93 UNAVI Z715 KULOK L984 SULUS Z12 COSJE T892 RIDSU Z114 ADENU L608 BUB/N0482F320 L608 DENUT |
| Aircraft | MD11/H-SDE1E2E3FGHIJ2J3J4J5M1RWXY/LB1D1 |
Departure
| Time | 2026-05-06 06:17 |
|---|---|
| Airport | Djibouti-Ambouli Airport (HDAM) |
Arrival
| Time | N/A |
|---|---|
| Airport | Ostend-Bruges International Airport (EBOS) |
| Time | Latitude | Longitude | Altitude | Speed | Heading |
|---|---|---|---|---|---|
| 2026-05-06 05:52 | 11.55132 | 43.14879 | 50 ft | 0 kts | 359° |
| 2026-05-06 06:08 | 11.55130 | 43.14879 | 53 ft | 2 kts | 359° |
| 2026-05-06 06:08 | 11.55105 | 43.14879 | 50 ft | 4 kts | 359° |
| 2026-05-06 06:08 | 11.55077 | 43.14879 | 47 ft | 4 kts | 359° |
| 2026-05-06 06:09 | 11.55050 | 43.14879 | 45 ft | 4 kts | 359° |
| 2026-05-06 06:09 | 11.55028 | 43.14880 | 47 ft | 4 kts | 343° |
| 2026-05-06 06:09 | 11.55010 | 43.14888 | 46 ft | 4 kts | 298° |
| 2026-05-06 06:09 | 11.55005 | 43.14909 | 45 ft | 4 kts | 263° |
| 2026-05-06 06:10 | 11.55008 | 43.14935 | 48 ft | 2 kts | 270° |
| 2026-05-06 06:10 | 11.55008 | 43.14937 | 49 ft | 0 kts | 271° |
| 2026-05-06 06:12 | 11.55008 | 43.14932 | 48 ft | 1 kts | 271° |
| 2026-05-06 06:12 | 11.55008 | 43.14915 | 46 ft | 3 kts | 271° |
| 2026-05-06 06:12 | 11.55009 | 43.14883 | 46 ft | 6 kts | 271° |
| 2026-05-06 06:13 | 11.55010 | 43.14836 | 50 ft | 8 kts | 270° |
| 2026-05-06 06:13 | 11.55011 | 43.14775 | 51 ft | 10 kts | 271° |
| 2026-05-06 06:13 | 11.55011 | 43.14701 | 49 ft | 11 kts | 270° |
| 2026-05-06 06:13 | 11.55009 | 43.14630 | 48 ft | 7 kts | 257° |
| 2026-05-06 06:14 | 11.54988 | 43.14612 | 48 ft | 3 kts | 204° |
| 2026-05-06 06:14 | 11.54958 | 43.14608 | 49 ft | 6 kts | 180° |
| 2026-05-06 06:14 | 11.54909 | 43.14608 | 47 ft | 8 kts | 180° |
| 2026-05-06 06:14 | 11.54863 | 43.14608 | 51 ft | 5 kts | 180° |
| 2026-05-06 06:15 | 11.54832 | 43.14608 | 52 ft | 3 kts | 180° |
| 2026-05-06 06:15 | 11.54815 | 43.14608 | 46 ft | 2 kts | 180° |
| 2026-05-06 06:15 | 11.54795 | 43.14608 | 49 ft | 4 kts | 180° |
| 2026-05-06 06:15 | 11.54762 | 43.14615 | 49 ft | 4 kts | 145° |
| 2026-05-06 06:16 | 11.54755 | 43.14641 | 51 ft | 5 kts | 95° |
| 2026-05-06 06:16 | 11.54751 | 43.14769 | 51 ft | 48 kts | 91° |
| 2026-05-06 06:16 | 11.54744 | 43.15386 | 47 ft | 124 kts | 91° |
| 2026-05-06 06:16 | 11.54732 | 43.16492 | 36 ft | 183 kts | 90° |
| 2026-05-06 06:17 | 11.54739 | 43.17809 | 576 ft | 182 kts | 89° |
| 2026-05-06 06:17 | 11.54789 | 43.19123 | 1223 ft | 189 kts | 81° |
| 2026-05-06 06:17 | 11.55162 | 43.20415 | 1883 ft | 199 kts | 65° |
| 2026-05-06 06:17 | 11.56049 | 43.21629 | 2047 ft | 229 kts | 40° |
| 2026-05-06 06:18 | 11.57521 | 43.22425 | 2226 ft | 254 kts | 14° |
| 2026-05-06 06:18 | 11.59355 | 43.22544 | 2393 ft | 276 kts | 356° |
| 2026-05-06 06:18 | 11.61354 | 43.22345 | 2719 ft | 296 kts | 354° |
| 2026-05-06 06:18 | 11.63402 | 43.22080 | 3609 ft | 299 kts | 353° |
| 2026-05-06 06:19 | 11.65465 | 43.21810 | 4498 ft | 301 kts | 354° |
| 2026-05-06 06:19 | 11.67550 | 43.21544 | 5320 ft | 303 kts | 354° |
| 2026-05-06 06:19 | 11.69631 | 43.21284 | 6117 ft | 306 kts | 354° |
| 2026-05-06 06:19 | 11.71751 | 43.21024 | 6861 ft | 309 kts | 354° |
| 2026-05-06 06:20 | 11.73871 | 43.20767 | 7572 ft | 313 kts | 355° |
| 2026-05-06 06:20 | 11.76043 | 43.20506 | 8261 ft | 316 kts | 356° |
| 2026-05-06 06:20 | 11.78243 | 43.20243 | 8945 ft | 320 kts | 356° |
| 2026-05-06 06:20 | 11.80453 | 43.19856 | 9579 ft | 327 kts | 348° |
| 2026-05-06 06:21 | 11.82594 | 43.18984 | 10063 ft | 341 kts | 333° |
| 2026-05-06 06:21 | 11.84519 | 43.17421 | 10197 ft | 367 kts | 316° |
| 2026-05-06 06:21 | 11.86242 | 43.15410 | 10512 ft | 381 kts | 311° |
| 2026-05-06 06:21 | 11.87886 | 43.13276 | 11165 ft | 384 kts | 310° |
| 2026-05-06 06:22 | 11.89531 | 43.11116 | 11853 ft | 386 kts | 310° |
| 2026-05-06 06:22 | 11.91200 | 43.08958 | 12535 ft | 388 kts | 311° |
| 2026-05-06 06:22 | 11.92905 | 43.06808 | 13170 ft | 389 kts | 314° |
| 2026-05-06 06:22 | 11.94877 | 43.04942 | 13778 ft | 385 kts | 329° |
| 2026-05-06 06:23 | 11.97218 | 43.03632 | 14252 ft | 384 kts | 339° |
| 2026-05-06 06:23 | 11.99697 | 43.02599 | 14742 ft | 385 kts | 342° |
| 2026-05-06 06:23 | 12.01365 | 43.01967 | 15093 ft | 387 kts | 342° |
| 2026-05-06 06:23 | 12.04770 | 43.00691 | 15719 ft | 392 kts | 342° |
| 2026-05-06 06:24 | 12.07337 | 42.99708 | 16202 ft | 395 kts | 341° |
| 2026-05-06 06:24 | 12.09915 | 42.98697 | 16670 ft | 398 kts | 340° |
| 2026-05-06 06:24 | 12.12506 | 42.97664 | 17134 ft | 401 kts | 340° |
| 2026-05-06 06:24 | 12.14230 | 42.96971 | 17438 ft | 403 kts | 340° |
| 2026-05-06 06:25 | 12.16847 | 42.95914 | 17887 ft | 406 kts | 339° |
| 2026-05-06 06:25 | 12.19480 | 42.94847 | 18320 ft | 408 kts | 339° |
| 2026-05-06 06:25 | 12.24800 | 42.92688 | 19030 ft | 415 kts | 339° |
| 2026-05-06 06:26 | 12.27495 | 42.91594 | 19377 ft | 418 kts | 339° |
| 2026-05-06 06:26 | 12.30133 | 42.90523 | 19710 ft | 420 kts | 339° |
| 2026-05-06 06:26 | 12.32933 | 42.89386 | 20044 ft | 424 kts | 339° |
| 2026-05-06 06:26 | 12.35680 | 42.88270 | 20370 ft | 427 kts | 339° |
| 2026-05-06 06:27 | 12.38445 | 42.87147 | 20704 ft | 430 kts | 339° |
| 2026-05-06 06:27 | 12.41238 | 42.86012 | 21031 ft | 433 kts | 339° |
| 2026-05-06 06:27 | 12.44043 | 42.84872 | 21367 ft | 436 kts | 339° |
| 2026-05-06 06:27 | 12.46875 | 42.83721 | 21696 ft | 439 kts | 339° |
| 2026-05-06 06:28 | 12.49724 | 42.82562 | 22034 ft | 442 kts | 339° |
| 2026-05-06 06:28 | 12.52597 | 42.81394 | 22385 ft | 445 kts | 339° |
| 2026-05-06 06:28 | 12.55488 | 42.80242 | 22715 ft | 448 kts | 341° |
| 2026-05-06 06:28 | 12.58436 | 42.79180 | 23062 ft | 451 kts | 342° |
| 2026-05-06 06:29 | 12.61429 | 42.78172 | 23408 ft | 454 kts | 343° |
| 2026-05-06 06:29 | 12.64451 | 42.77181 | 23725 ft | 457 kts | 343° |
| 2026-05-06 06:29 | 12.67484 | 42.76193 | 24060 ft | 459 kts | 343° |
| 2026-05-06 06:29 | 12.70537 | 42.75195 | 24392 ft | 461 kts | 342° |
| 2026-05-06 06:30 | 12.73599 | 42.74188 | 24710 ft | 464 kts | 343° |
| 2026-05-06 06:30 | 12.76677 | 42.73171 | 25032 ft | 466 kts | 342° |
| 2026-05-06 06:30 | 12.79772 | 42.72146 | 25353 ft | 468 kts | 342° |
| 2026-05-06 06:30 | 12.82883 | 42.71113 | 25701 ft | 470 kts | 342° |
| 2026-05-06 06:31 | 12.85999 | 42.70079 | 26056 ft | 472 kts | 342° |
| 2026-05-06 06:31 | 12.89137 | 42.69037 | 26383 ft | 475 kts | 342° |
| 2026-05-06 06:31 | 12.92290 | 42.67989 | 26696 ft | 477 kts | 342° |
| 2026-05-06 06:31 | 12.95451 | 42.66939 | 27039 ft | 479 kts | 342° |
| 2026-05-06 06:32 | 12.98624 | 42.65885 | 27400 ft | 480 kts | 342° |
| 2026-05-06 06:32 | 13.01812 | 42.64825 | 27692 ft | 483 kts | 341° |
| 2026-05-06 06:32 | 13.04971 | 42.63762 | 27950 ft | 485 kts | 340° |
| 2026-05-06 06:32 | 13.08076 | 42.62400 | 28255 ft | 486 kts | 330° |
| 2026-05-06 06:33 | 13.10915 | 42.60527 | 28600 ft | 486 kts | 323° |
| 2026-05-06 06:33 | 13.13585 | 42.58385 | 28883 ft | 488 kts | 320° |
| 2026-05-06 06:33 | 13.16191 | 42.56140 | 29152 ft | 491 kts | 318° |
| 2026-05-06 06:33 | 13.18802 | 42.53872 | 29456 ft | 492 kts | 319° |
| 2026-05-06 06:34 | 13.21443 | 42.51615 | 29743 ft | 494 kts | 320° |
| 2026-05-06 06:34 | 13.24109 | 42.49380 | 30010 ft | 496 kts | 320° |
| 2026-05-06 06:34 | 13.26772 | 42.47180 | 30217 ft | 498 kts | 320° |
| 2026-05-06 06:34 | 13.29483 | 42.44959 | 30427 ft | 500 kts | 320° |
| 2026-05-06 06:35 | 13.32207 | 42.42736 | 30611 ft | 501 kts | 320° |
| 2026-05-06 06:35 | 13.34935 | 42.40510 | 30843 ft | 501 kts | 321° |
| 2026-05-06 06:35 | 13.37660 | 42.38286 | 31108 ft | 500 kts | 321° |
| 2026-05-06 06:35 | 13.40380 | 42.36063 | 31406 ft | 499 kts | 321° |
| 2026-05-06 06:36 | 13.43093 | 42.33845 | 31669 ft | 498 kts | 320° |
| 2026-05-06 06:36 | 13.45803 | 42.31626 | 31834 ft | 499 kts | 320° |
| 2026-05-06 06:36 | 13.48515 | 42.29404 | 31871 ft | 499 kts | 321° |
| 2026-05-06 06:37 | 13.53965 | 42.24939 | 31892 ft | 502 kts | 320° |
| 2026-05-06 06:37 | 13.59430 | 42.20458 | 31890 ft | 503 kts | 320° |
| 2026-05-06 06:38 | 13.64858 | 42.16005 | 31895 ft | 502 kts | 320° |
| 2026-05-06 06:38 | 13.70313 | 42.11516 | 31891 ft | 502 kts | 320° |
| 2026-05-06 06:39 | 13.75765 | 42.07027 | 31895 ft | 502 kts | 319° |
| 2026-05-06 06:39 | 13.81213 | 42.02541 | 31895 ft | 502 kts | 321° |
| 2026-05-06 06:40 | 13.86669 | 41.98048 | 31897 ft | 502 kts | 320° |
| 2026-05-06 06:40 | 13.92109 | 41.93565 | 31901 ft | 501 kts | 320° |
| 2026-05-06 06:41 | 13.97542 | 41.89085 | 31900 ft | 500 kts | 320° |
| 2026-05-06 06:41 | 14.02970 | 41.84606 | 31901 ft | 500 kts | 320° |
| 2026-05-06 06:42 | 14.08397 | 41.80125 | 31885 ft | 500 kts | 320° |
| 2026-05-06 06:42 | 14.13824 | 41.75641 | 31881 ft | 500 kts | 320° |
| 2026-05-06 06:43 | 14.19244 | 41.71161 | 31882 ft | 499 kts | 320° |
| 2026-05-06 06:43 | 14.24663 | 41.66678 | 31897 ft | 499 kts | 320° |
| 2026-05-06 06:44 | 14.30078 | 41.62195 | 31900 ft | 499 kts | 320° |
| 2026-05-06 06:44 | 14.35490 | 41.57705 | 31902 ft | 499 kts | 320° |
| 2026-05-06 06:45 | 14.40863 | 41.53247 | 31893 ft | 499 kts | 320° |
| 2026-05-06 06:45 | 14.46273 | 41.48759 | 31887 ft | 499 kts | 320° |
| 2026-05-06 06:46 | 14.51686 | 41.44267 | 31893 ft | 499 kts | 320° |
| 2026-05-06 06:46 | 14.57096 | 41.39775 | 31891 ft | 499 kts | 320° |
| 2026-05-06 06:47 | 14.62507 | 41.35278 | 31897 ft | 500 kts | 320° |
| 2026-05-06 06:47 | 14.67914 | 41.30783 | 31893 ft | 498 kts | 319° |
| 2026-05-06 06:48 | 14.73314 | 41.26290 | 31891 ft | 498 kts | 320° |
| 2026-05-06 06:48 | 14.78709 | 41.21798 | 31897 ft | 498 kts | 320° |
| 2026-05-06 06:49 | 14.84102 | 41.17304 | 31899 ft | 498 kts | 320° |
| 2026-05-06 06:49 | 14.89479 | 41.12822 | 31896 ft | 498 kts | 320° |
| 2026-05-06 06:50 | 14.94869 | 41.08325 | 31902 ft | 498 kts | 319° |
| 2026-05-06 06:50 | 15.00251 | 41.03823 | 31903 ft | 498 kts | 319° |
| 2026-05-06 06:51 | 15.05600 | 40.99346 | 31904 ft | 498 kts | 319° |
| 2026-05-06 06:51 | 15.10980 | 40.94842 | 31902 ft | 498 kts | 319° |
| 2026-05-06 06:52 | 15.16371 | 40.90326 | 31902 ft | 498 kts | 319° |
| 2026-05-06 06:52 | 15.21742 | 40.85826 | 31902 ft | 497 kts | 319° |
| 2026-05-06 06:53 | 15.27121 | 40.81315 | 31905 ft | 497 kts | 319° |
| 2026-05-06 06:53 | 15.32488 | 40.76810 | 31901 ft | 497 kts | 319° |
| 2026-05-06 06:54 | 15.37861 | 40.72298 | 31907 ft | 497 kts | 319° |
| 2026-05-06 06:54 | 15.43232 | 40.67784 | 31906 ft | 497 kts | 319° |
| 2026-05-06 06:55 | 15.48602 | 40.63268 | 31907 ft | 497 kts | 319° |
| 2026-05-06 06:55 | 15.53968 | 40.58752 | 31904 ft | 497 kts | 319° |
| 2026-05-06 06:56 | 15.59337 | 40.54231 | 31908 ft | 497 kts | 319° |
| 2026-05-06 06:56 | 15.64704 | 40.49708 | 31906 ft | 497 kts | 319° |
| 2026-05-06 06:57 | 15.70065 | 40.45181 | 31907 ft | 496 kts | 319° |
| 2026-05-06 06:57 | 15.75419 | 40.40655 | 31909 ft | 496 kts | 319° |
| 2026-05-06 06:58 | 15.80778 | 40.36127 | 31908 ft | 496 kts | 319° |
| 2026-05-06 06:58 | 15.86131 | 40.31603 | 31909 ft | 496 kts | 319° |
| 2026-05-06 06:59 | 15.91452 | 40.27104 | 31909 ft | 496 kts | 319° |
| 2026-05-06 06:59 | 15.96806 | 40.22573 | 31909 ft | 495 kts | 319° |
| 2026-05-06 07:00 | 16.02146 | 40.18051 | 31912 ft | 495 kts | 319° |
| 2026-05-06 07:00 | 16.07487 | 40.13524 | 31913 ft | 495 kts | 319° |
| 2026-05-06 07:01 | 16.12822 | 40.09000 | 31913 ft | 495 kts | 319° |
| 2026-05-06 07:01 | 16.18166 | 40.04464 | 31911 ft | 495 kts | 319° |
| 2026-05-06 07:02 | 16.23499 | 39.99935 | 31915 ft | 495 kts | 319° |
| 2026-05-06 07:02 | 16.28832 | 39.95402 | 31911 ft | 495 kts | 318° |
| 2026-05-06 07:03 | 16.34170 | 39.90856 | 31908 ft | 495 kts | 318° |
| 2026-05-06 07:03 | 16.39500 | 39.86311 | 31908 ft | 495 kts | 318° |
| 2026-05-06 07:04 | 16.44802 | 39.81792 | 31911 ft | 495 kts | 318° |
| 2026-05-06 07:04 | 16.50109 | 39.77268 | 31912 ft | 495 kts | 319° |
| 2026-05-06 07:05 | 16.55437 | 39.72723 | 31911 ft | 495 kts | 319° |
| 2026-05-06 07:05 | 16.60771 | 39.68170 | 31909 ft | 495 kts | 318° |
| 2026-05-06 07:06 | 16.66101 | 39.63616 | 31909 ft | 495 kts | 318° |
| 2026-05-06 07:06 | 16.71435 | 39.59056 | 31908 ft | 495 kts | 318° |
| 2026-05-06 07:07 | 16.76758 | 39.54502 | 31912 ft | 494 kts | 318° |
| 2026-05-06 07:07 | 16.82077 | 39.49947 | 31912 ft | 494 kts | 318° |
| 2026-05-06 07:08 | 16.87390 | 39.45395 | 31911 ft | 494 kts | 318° |
| 2026-05-06 07:08 | 16.92711 | 39.40832 | 31911 ft | 494 kts | 318° |
| 2026-05-06 07:09 | 16.98027 | 39.36266 | 31908 ft | 494 kts | 318° |
| 2026-05-06 07:09 | 17.03292 | 39.31734 | 31909 ft | 493 kts | 318° |
| 2026-05-06 07:10 | 17.08589 | 39.27178 | 31916 ft | 493 kts | 318° |
| 2026-05-06 07:10 | 17.13887 | 39.22620 | 31917 ft | 493 kts | 318° |
| 2026-05-06 07:11 | 17.19186 | 39.18060 | 31915 ft | 493 kts | 318° |
| 2026-05-06 07:11 | 17.24484 | 39.13496 | 31913 ft | 493 kts | 318° |
| 2026-05-06 07:12 | 17.29776 | 39.08934 | 31917 ft | 492 kts | 318° |
| 2026-05-06 07:12 | 17.35060 | 39.04375 | 31917 ft | 492 kts | 317° |
| 2026-05-06 07:13 | 17.39458 | 39.00577 | 31915 ft | 492 kts | 317° |
| 2026-05-06 07:13 | 17.44734 | 38.96007 | 31917 ft | 492 kts | 317° |
| 2026-05-06 07:14 | 17.50001 | 38.91422 | 31921 ft | 492 kts | 317° |
| 2026-05-06 07:14 | 17.55271 | 38.86832 | 31920 ft | 492 kts | 317° |
| 2026-05-06 07:15 | 17.60534 | 38.82250 | 31927 ft | 491 kts | 317° |
| 2026-05-06 07:15 | 17.65777 | 38.77681 | 31919 ft | 490 kts | 317° |
| 2026-05-06 07:16 | 17.71029 | 38.73100 | 31926 ft | 491 kts | 317° |
| 2026-05-06 07:16 | 17.76274 | 38.68523 | 31925 ft | 491 kts | 317° |
| 2026-05-06 07:17 | 17.81520 | 38.63941 | 31932 ft | 490 kts | 317° |
| 2026-05-06 07:17 | 17.86757 | 38.59363 | 31930 ft | 490 kts | 317° |
| 2026-05-06 07:18 | 17.91961 | 38.54810 | 31936 ft | 490 kts | 317° |
| 2026-05-06 07:18 | 17.97195 | 38.50228 | 31928 ft | 490 kts | 317° |
| 2026-05-06 07:19 | 18.02427 | 38.45643 | 31934 ft | 490 kts | 317° |
| 2026-05-06 07:19 | 18.07635 | 38.41072 | 31931 ft | 490 kts | 317° |
| 2026-05-06 07:20 | 18.12863 | 38.36473 | 31931 ft | 490 kts | 317° |
| 2026-05-06 07:20 | 18.18094 | 38.31873 | 31931 ft | 490 kts | 317° |
| 2026-05-06 07:21 | 18.23326 | 38.27273 | 31929 ft | 490 kts | 317° |
| 2026-05-06 07:21 | 18.28554 | 38.22674 | 31937 ft | 490 kts | 316° |
| 2026-05-06 07:22 | 18.33778 | 38.18075 | 31936 ft | 489 kts | 316° |
| 2026-05-06 07:22 | 18.38992 | 38.13480 | 31931 ft | 489 kts | 316° |
| 2026-05-06 07:23 | 18.44208 | 38.08880 | 31931 ft | 489 kts | 316° |
| 2026-05-06 07:23 | 18.49420 | 38.04279 | 31928 ft | 489 kts | 316° |
| 2026-05-06 07:24 | 18.54597 | 37.99705 | 31930 ft | 489 kts | 316° |
| 2026-05-06 07:24 | 18.59804 | 37.95099 | 31948 ft | 489 kts | 315° |
| 2026-05-06 07:25 | 18.65000 | 37.90502 | 31932 ft | 487 kts | 315° |
| 2026-05-06 07:25 | 18.70187 | 37.85913 | 31931 ft | 487 kts | 315° |
| 2026-05-06 07:26 | 18.75375 | 37.81322 | 31928 ft | 487 kts | 315° |
| 2026-05-06 07:26 | 18.80562 | 37.76729 | 31930 ft | 487 kts | 315° |
| 2026-05-06 07:27 | 18.85752 | 37.72129 | 31935 ft | 487 kts | 315° |
| 2026-05-06 07:27 | 18.90937 | 37.67531 | 31938 ft | 487 kts | 315° |
| 2026-05-06 07:28 | 18.96118 | 37.62931 | 31932 ft | 486 kts | 315° |
| 2026-05-06 07:28 | 19.03882 | 37.56030 | 31936 ft | 486 kts | 315° |
| 2026-05-06 07:29 | 19.09059 | 37.51424 | 31951 ft | 486 kts | 315° |
| 2026-05-06 07:29 | 19.14229 | 37.46821 | 31939 ft | 486 kts | 315° |
| 2026-05-06 07:30 | 19.19399 | 37.42213 | 31940 ft | 486 kts | 315° |
| 2026-05-06 07:30 | 19.24563 | 37.37598 | 31941 ft | 486 kts | 314° |
| 2026-05-06 07:31 | 19.29724 | 37.32982 | 31948 ft | 485 kts | 314° |
| 2026-05-06 07:31 | 19.34864 | 37.28421 | 31942 ft | 486 kts | 316° |
| 2026-05-06 07:32 | 19.40436 | 37.24296 | 31940 ft | 491 kts | 321° |
| 2026-05-06 07:32 | 19.46219 | 37.20441 | 31947 ft | 491 kts | 322° |
| 2026-05-06 07:33 | 19.52000 | 37.16580 | 31944 ft | 491 kts | 322° |
| 2026-05-06 07:33 | 19.57752 | 37.12683 | 31950 ft | 491 kts | 321° |
| 2026-05-06 07:34 | 19.63497 | 37.08766 | 31955 ft | 491 kts | 321° |
| 2026-05-06 07:34 | 19.69213 | 37.04866 | 31948 ft | 491 kts | 321° |
| 2026-05-06 07:35 | 19.74964 | 37.00939 | 31953 ft | 491 kts | 321° |
| 2026-05-06 07:35 | 19.80708 | 36.97015 | 31950 ft | 492 kts | 321° |
| 2026-05-06 07:36 | 19.86459 | 36.93083 | 31958 ft | 492 kts | 321° |
| 2026-05-06 07:36 | 19.92216 | 36.89144 | 31952 ft | 492 kts | 321° |
| 2026-05-06 07:37 | 19.97972 | 36.85201 | 31959 ft | 492 kts | 321° |
| 2026-05-06 07:37 | 20.03690 | 36.81282 | 31960 ft | 492 kts | 321° |
| 2026-05-06 07:38 | 20.09469 | 36.77310 | 31959 ft | 491 kts | 321° |
| 2026-05-06 07:38 | 20.15206 | 36.73365 | 31968 ft | 491 kts | 320° |
| 2026-05-06 07:39 | 20.20939 | 36.69422 | 31965 ft | 491 kts | 320° |
| 2026-05-06 07:39 | 20.26636 | 36.65501 | 31953 ft | 490 kts | 320° |
| 2026-05-06 07:40 | 20.32354 | 36.61563 | 31955 ft | 490 kts | 320° |
| 2026-05-06 07:40 | 20.38074 | 36.57622 | 31957 ft | 490 kts | 320° |
| 2026-05-06 07:41 | 20.43821 | 36.53656 | 31947 ft | 490 kts | 321° |
| 2026-05-06 07:41 | 20.49555 | 36.49698 | 31957 ft | 491 kts | 320° |
| 2026-05-06 07:42 | 20.55277 | 36.45745 | 31951 ft | 490 kts | 320° |
| 2026-05-06 07:42 | 20.60924 | 36.41839 | 31959 ft | 489 kts | 320° |
| 2026-05-06 07:43 | 20.66692 | 36.37845 | 31944 ft | 489 kts | 320° |
| 2026-05-06 07:43 | 20.72386 | 36.33899 | 31946 ft | 489 kts | 320° |
| 2026-05-06 07:44 | 20.78108 | 36.29936 | 31945 ft | 489 kts | 320° |
| 2026-05-06 07:44 | 20.83820 | 36.25987 | 31952 ft | 489 kts | 320° |
| 2026-05-06 07:45 | 20.89529 | 36.22044 | 31957 ft | 488 kts | 320° |
| 2026-05-06 07:45 | 20.95187 | 36.18131 | 31956 ft | 487 kts | 320° |
| 2026-05-06 07:46 | 21.00876 | 36.14193 | 31969 ft | 487 kts | 319° |
| 2026-05-06 07:46 | 21.06564 | 36.10255 | 31960 ft | 486 kts | 319° |
| 2026-05-06 07:47 | 21.12244 | 36.06315 | 31960 ft | 487 kts | 319° |
| 2026-05-06 07:47 | 21.17925 | 36.02372 | 31966 ft | 487 kts | 319° |
| 2026-05-06 07:48 | 21.23608 | 35.98424 | 31988 ft | 487 kts | 319° |
| 2026-05-06 07:48 | 21.29292 | 35.94470 | 31973 ft | 487 kts | 319° |
| 2026-05-06 07:49 | 21.34977 | 35.90514 | 31976 ft | 487 kts | 319° |
| 2026-05-06 07:49 | 21.40629 | 35.86577 | 31977 ft | 487 kts | 319° |
| 2026-05-06 07:50 | 21.46311 | 35.82609 | 31978 ft | 487 kts | 319° |
| 2026-05-06 07:50 | 21.51951 | 35.78662 | 31982 ft | 487 kts | 319° |
| 2026-05-06 07:51 | 21.57634 | 35.74689 | 31995 ft | 487 kts | 319° |
| 2026-05-06 07:51 | 21.63313 | 35.70720 | 31980 ft | 487 kts | 319° |
| 2026-05-06 07:52 | 21.68969 | 35.66761 | 31979 ft | 487 kts | 319° |
| 2026-05-06 07:52 | 21.74674 | 35.62762 | 31979 ft | 487 kts | 319° |
| 2026-05-06 07:53 | 21.80350 | 35.58780 | 31979 ft | 487 kts | 319° |
| 2026-05-06 07:53 | 21.86034 | 35.54790 | 31978 ft | 487 kts | 319° |
| 2026-05-06 07:54 | 21.91710 | 35.50799 | 31990 ft | 488 kts | 319° |
| 2026-05-06 07:54 | 21.97343 | 35.46837 | 31984 ft | 487 kts | 319° |
| 2026-05-06 07:55 | 22.03046 | 35.42843 | 31995 ft | 487 kts | 319° |
| 2026-05-06 07:55 | 22.08741 | 35.38881 | 31986 ft | 488 kts | 320° |
| 2026-05-06 07:56 | 22.14442 | 35.34918 | 31992 ft | 487 kts | 320° |
| 2026-05-06 07:56 | 22.20137 | 35.30956 | 32015 ft | 487 kts | 320° |
| 2026-05-06 07:57 | 22.25828 | 35.26992 | 31995 ft | 487 kts | 320° |
| 2026-05-06 07:57 | 22.31517 | 35.23023 | 31998 ft | 487 kts | 320° |
| 2026-05-06 07:58 | 22.37204 | 35.19052 | 31993 ft | 487 kts | 320° |
| 2026-05-06 07:58 | 22.42898 | 35.15074 | 31999 ft | 487 kts | 320° |
| 2026-05-06 07:59 | 22.48582 | 35.11099 | 31996 ft | 487 kts | 320° |
| 2026-05-06 07:59 | 22.54267 | 35.07117 | 31999 ft | 486 kts | 319° |
| 2026-05-06 08:00 | 22.59951 | 35.03132 | 31999 ft | 488 kts | 319° |
| 2026-05-06 08:00 | 22.65601 | 34.99169 | 32031 ft | 488 kts | 319° |
| 2026-05-06 08:01 | 22.71287 | 34.95172 | 31996 ft | 486 kts | 319° |
| 2026-05-06 08:01 | 22.76946 | 34.91183 | 31994 ft | 485 kts | 319° |
| 2026-05-06 08:02 | 22.82612 | 34.87190 | 32002 ft | 485 kts | 319° |
| 2026-05-06 08:02 | 22.87320 | 34.83875 | 32008 ft | 484 kts | 319° |
| 2026-05-06 08:03 | 22.92964 | 34.79896 | 31996 ft | 484 kts | 319° |
| 2026-05-06 08:03 | 22.98610 | 34.75911 | 31997 ft | 484 kts | 319° |
| 2026-05-06 08:04 | 23.04169 | 34.71983 | 32002 ft | 483 kts | 320° |
| 2026-05-06 08:04 | 23.09857 | 34.67963 | 31997 ft | 482 kts | 320° |
| 2026-05-06 08:05 | 23.15475 | 34.63985 | 31994 ft | 482 kts | 320° |
| 2026-05-06 08:05 | 23.20983 | 34.60083 | 32005 ft | 482 kts | 320° |
| 2026-05-06 08:06 | 23.26677 | 34.56043 | 32006 ft | 482 kts | 320° |
| 2026-05-06 08:06 | 23.32285 | 34.52061 | 31988 ft | 482 kts | 320° |
| 2026-05-06 08:07 | 23.37894 | 34.48073 | 31998 ft | 482 kts | 320° |
| 2026-05-06 08:07 | 23.43494 | 34.44081 | 31996 ft | 480 kts | 320° |
| 2026-05-06 08:08 | 23.49078 | 34.40093 | 31999 ft | 481 kts | 320° |
| 2026-05-06 08:08 | 23.51882 | 34.38092 | 32199 ft | 482 kts | 320° |
| 2026-05-06 08:08 | 23.54683 | 34.36094 | 32434 ft | 481 kts | 320° |
| 2026-05-06 08:09 | 23.57482 | 34.34097 | 32682 ft | 480 kts | 320° |
| 2026-05-06 08:09 | 23.60279 | 34.32101 | 32925 ft | 480 kts | 320° |
| 2026-05-06 08:09 | 23.63069 | 34.30109 | 33147 ft | 479 kts | 320° |
| 2026-05-06 08:09 | 23.65860 | 34.28115 | 33383 ft | 478 kts | 320° |
| 2026-05-06 08:10 | 23.68644 | 34.26125 | 33582 ft | 478 kts | 320° |
| 2026-05-06 08:10 | 23.71426 | 34.24135 | 33811 ft | 477 kts | 319° |
| 2026-05-06 08:10 | 23.74197 | 34.22151 | 33954 ft | 476 kts | 319° |
| 2026-05-06 08:10 | 23.76972 | 34.20164 | 33983 ft | 476 kts | 320° |
| 2026-05-06 08:11 | 23.82498 | 34.16206 | 34001 ft | 474 kts | 320° |
| 2026-05-06 08:11 | 23.87988 | 34.12290 | 33995 ft | 474 kts | 320° |
| 2026-05-06 08:12 | 23.93516 | 34.08355 | 33996 ft | 474 kts | 320° |
| 2026-05-06 08:12 | 23.99048 | 34.04414 | 33996 ft | 474 kts | 320° |
| 2026-05-06 08:13 | 24.04577 | 34.00471 | 33997 ft | 474 kts | 320° |
| 2026-05-06 08:13 | 24.10119 | 33.96514 | 33997 ft | 474 kts | 320° |
| 2026-05-06 08:14 | 24.15558 | 33.92628 | 34016 ft | 473 kts | 320° |
| 2026-05-06 08:14 | 24.21150 | 33.88627 | 34003 ft | 473 kts | 320° |
| 2026-05-06 08:15 | 24.26655 | 33.84684 | 34001 ft | 473 kts | 320° |
| 2026-05-06 08:15 | 24.32153 | 33.80742 | 34002 ft | 472 kts | 320° |
| 2026-05-06 08:16 | 24.37651 | 33.76796 | 34001 ft | 472 kts | 320° |
| 2026-05-06 08:16 | 24.43146 | 33.72848 | 34003 ft | 472 kts | 320° |
| 2026-05-06 08:17 | 24.48555 | 33.68957 | 34010 ft | 473 kts | 320° |
| 2026-05-06 08:17 | 24.54137 | 33.64930 | 33999 ft | 472 kts | 320° |
| 2026-05-06 08:18 | 24.59624 | 33.60964 | 34011 ft | 472 kts | 320° |
| 2026-05-06 08:18 | 24.65116 | 33.56997 | 33996 ft | 472 kts | 320° |
| 2026-05-06 08:19 | 24.70567 | 33.53059 | 33995 ft | 472 kts | 320° |
| 2026-05-06 08:19 | 24.76032 | 33.49108 | 34013 ft | 472 kts | 320° |
| 2026-05-06 08:20 | 24.81522 | 33.45134 | 34009 ft | 473 kts | 320° |
| 2026-05-06 08:20 | 24.87028 | 33.41143 | 34008 ft | 473 kts | 320° |
| 2026-05-06 08:21 | 24.92532 | 33.37151 | 34011 ft | 473 kts | 320° |
| 2026-05-06 08:21 | 24.98034 | 33.33156 | 34014 ft | 473 kts | 320° |
| 2026-05-06 08:22 | 25.03532 | 33.29158 | 34014 ft | 473 kts | 320° |
| 2026-05-06 08:22 | 25.09027 | 33.25159 | 34014 ft | 473 kts | 320° |
| 2026-05-06 08:23 | 25.14528 | 33.21151 | 34023 ft | 474 kts | 320° |
| 2026-05-06 08:23 | 25.19997 | 33.17160 | 34020 ft | 474 kts | 320° |
| 2026-05-06 08:24 | 25.25485 | 33.13132 | 34024 ft | 473 kts | 320° |
| 2026-05-06 08:24 | 25.30965 | 33.09096 | 34023 ft | 473 kts | 320° |
| 2026-05-06 08:25 | 25.36437 | 33.05068 | 34026 ft | 473 kts | 320° |
| 2026-05-06 08:25 | 25.41882 | 33.01058 | 34048 ft | 473 kts | 320° |
| 2026-05-06 08:26 | 25.47391 | 32.96998 | 34027 ft | 473 kts | 320° |
| 2026-05-06 08:26 | 25.52862 | 32.92959 | 34033 ft | 473 kts | 320° |
| 2026-05-06 08:27 | 25.58331 | 32.88918 | 34051 ft | 473 kts | 320° |
| 2026-05-06 08:27 | 25.63791 | 32.84884 | 34035 ft | 470 kts | 320° |
| 2026-05-06 08:28 | 25.69229 | 32.80855 | 34047 ft | 470 kts | 320° |
| 2026-05-06 08:28 | 25.74832 | 32.77098 | 34063 ft | 477 kts | 330° |
| 2026-05-06 08:29 | 25.81215 | 32.74786 | 34043 ft | 486 kts | 340° |
| 2026-05-06 08:29 | 25.87753 | 32.72983 | 34043 ft | 487 kts | 340° |
| 2026-05-06 08:30 | 25.94296 | 32.71083 | 34038 ft | 486 kts | 339° |
| 2026-05-06 08:30 | 26.00812 | 32.69082 | 34032 ft | 486 kts | 339° |
| 2026-05-06 08:31 | 26.07315 | 32.67055 | 34037 ft | 485 kts | 338° |
| 2026-05-06 08:31 | 26.13816 | 32.65029 | 34025 ft | 485 kts | 338° |
| 2026-05-06 08:32 | 26.20332 | 32.62998 | 34028 ft | 485 kts | 338° |
| 2026-05-06 08:32 | 26.26835 | 32.60972 | 34025 ft | 483 kts | 339° |
| 2026-05-06 08:33 | 26.33298 | 32.58959 | 34033 ft | 482 kts | 339° |
| 2026-05-06 08:33 | 26.39767 | 32.56935 | 34031 ft | 482 kts | 339° |
| 2026-05-06 08:34 | 26.49362 | 32.53930 | 34034 ft | 482 kts | 339° |
| 2026-05-06 08:35 | 26.55777 | 32.51920 | 34026 ft | 482 kts | 339° |
| 2026-05-06 08:35 | 26.62234 | 32.49887 | 34032 ft | 482 kts | 339° |
| 2026-05-06 08:36 | 26.68703 | 32.47852 | 34036 ft | 482 kts | 339° |
| 2026-05-06 08:36 | 26.75155 | 32.45823 | 34034 ft | 482 kts | 339° |
| 2026-05-06 08:37 | 26.81532 | 32.43815 | 34032 ft | 482 kts | 339° |
| 2026-05-06 08:37 | 26.88067 | 32.41755 | 34042 ft | 482 kts | 339° |
| 2026-05-06 08:38 | 26.94519 | 32.39719 | 34040 ft | 482 kts | 339° |
| 2026-05-06 08:38 | 27.00971 | 32.37680 | 34042 ft | 482 kts | 339° |
| 2026-05-06 08:39 | 27.07422 | 32.35639 | 34044 ft | 482 kts | 339° |
| 2026-05-06 08:39 | 27.13840 | 32.33607 | 34042 ft | 479 kts | 339° |
| 2026-05-06 08:40 | 27.20290 | 32.31562 | 34046 ft | 479 kts | 339° |
| 2026-05-06 08:40 | 27.26676 | 32.29534 | 34046 ft | 480 kts | 339° |
| 2026-05-06 08:41 | 27.33099 | 32.27493 | 34052 ft | 479 kts | 339° |
| 2026-05-06 08:41 | 27.39516 | 32.25458 | 34053 ft | 479 kts | 339° |
| 2026-05-06 08:42 | 27.45947 | 32.23420 | 34061 ft | 481 kts | 339° |
| 2026-05-06 08:42 | 27.52382 | 32.21380 | 34055 ft | 481 kts | 339° |
| 2026-05-06 08:43 | 27.58830 | 32.19333 | 34060 ft | 481 kts | 339° |
| 2026-05-06 08:43 | 27.65269 | 32.17286 | 34086 ft | 481 kts | 339° |
| 2026-05-06 08:44 | 27.71625 | 32.15263 | 34080 ft | 481 kts | 339° |
| 2026-05-06 08:44 | 27.78159 | 32.13180 | 34091 ft | 482 kts | 339° |
| 2026-05-06 08:45 | 27.84537 | 32.11145 | 34091 ft | 482 kts | 339° |
| 2026-05-06 08:45 | 27.91078 | 32.09056 | 34094 ft | 482 kts | 339° |
| 2026-05-06 08:46 | 27.97534 | 32.06991 | 34148 ft | 482 kts | 339° |
| 2026-05-06 08:46 | 28.03918 | 32.04952 | 34126 ft | 480 kts | 339° |
| 2026-05-06 08:47 | 28.10352 | 32.02925 | 34122 ft | 480 kts | 339° |
| 2026-05-06 08:47 | 28.16784 | 32.00911 | 34123 ft | 480 kts | 339° |
| 2026-05-06 08:48 | 28.23222 | 31.98893 | 34121 ft | 480 kts | 339° |
| 2026-05-06 08:48 | 28.29573 | 31.96898 | 34124 ft | 480 kts | 339° |
| 2026-05-06 08:49 | 28.36105 | 31.94845 | 34130 ft | 480 kts | 339° |
| 2026-05-06 08:49 | 28.42514 | 31.92827 | 34131 ft | 480 kts | 339° |
| 2026-05-06 08:50 | 28.48953 | 31.90798 | 34127 ft | 480 kts | 339° |
| 2026-05-06 08:50 | 28.55349 | 31.88779 | 34137 ft | 480 kts | 339° |
| 2026-05-06 08:51 | 28.61794 | 31.86742 | 34128 ft | 480 kts | 339° |
| 2026-05-06 08:51 | 28.68238 | 31.84703 | 34132 ft | 480 kts | 339° |
| 2026-05-06 08:52 | 28.74679 | 31.82662 | 34133 ft | 480 kts | 339° |
| 2026-05-06 08:52 | 28.81115 | 31.80621 | 34141 ft | 480 kts | 339° |
| 2026-05-06 08:53 | 28.86512 | 31.78902 | 34137 ft | 479 kts | 339° |
| 2026-05-06 08:53 | 28.92891 | 31.76868 | 34136 ft | 479 kts | 339° |
| 2026-05-06 08:54 | 28.99344 | 31.74806 | 34132 ft | 479 kts | 339° |
| 2026-05-06 08:54 | 29.05754 | 31.72735 | 34138 ft | 479 kts | 339° |
| 2026-05-06 08:55 | 29.12026 | 31.70703 | 34146 ft | 477 kts | 339° |
| 2026-05-06 08:55 | 29.18500 | 31.68603 | 34142 ft | 477 kts | 339° |
| 2026-05-06 08:56 | 29.24867 | 31.66535 | 34143 ft | 477 kts | 339° |
| 2026-05-06 08:56 | 29.31290 | 31.64448 | 34142 ft | 478 kts | 339° |
| 2026-05-06 08:57 | 29.37679 | 31.62369 | 34142 ft | 478 kts | 339° |
| 2026-05-06 08:57 | 29.44075 | 31.60285 | 34139 ft | 477 kts | 339° |
| 2026-05-06 08:58 | 29.50463 | 31.58200 | 34140 ft | 477 kts | 339° |
| 2026-05-06 08:58 | 29.56728 | 31.56153 | 34142 ft | 477 kts | 339° |
| 2026-05-06 08:59 | 29.63245 | 31.54021 | 34142 ft | 476 kts | 339° |
| 2026-05-06 08:59 | 29.69548 | 31.51955 | 34136 ft | 475 kts | 339° |
| 2026-05-06 09:00 | 29.75892 | 31.49850 | 34121 ft | 473 kts | 339° |
| 2026-05-06 09:00 | 29.82215 | 31.47744 | 34125 ft | 473 kts | 339° |
| 2026-05-06 09:01 | 29.88543 | 31.45636 | 34124 ft | 473 kts | 339° |
| 2026-05-06 09:01 | 29.94846 | 31.43538 | 34108 ft | 471 kts | 339° |
| 2026-05-06 09:02 | 30.01146 | 31.41436 | 34101 ft | 471 kts | 339° |
| 2026-05-06 09:02 | 30.07425 | 31.39279 | 34103 ft | 469 kts | 335° |
| 2026-05-06 09:03 | 30.13073 | 31.35799 | 34102 ft | 456 kts | 317° |
| 2026-05-06 09:03 | 30.17647 | 31.30801 | 34110 ft | 451 kts | 310° |
| 2026-05-06 09:04 | 30.22047 | 31.25603 | 34107 ft | 452 kts | 311° |
| 2026-05-06 09:04 | 30.26517 | 31.20585 | 34114 ft | 453 kts | 313° |
| 2026-05-06 09:05 | 30.31064 | 31.15622 | 34116 ft | 453 kts | 313° |
| 2026-05-06 09:05 | 30.35658 | 31.10630 | 34116 ft | 453 kts | 313° |
| 2026-05-06 09:06 | 30.40251 | 31.05629 | 34116 ft | 453 kts | 313° |
| 2026-05-06 09:06 | 30.44841 | 31.00620 | 34117 ft | 453 kts | 313° |
| 2026-05-06 09:07 | 30.49427 | 30.95607 | 34145 ft | 453 kts | 313° |
| 2026-05-06 09:07 | 30.54016 | 30.90583 | 34121 ft | 453 kts | 313° |
| 2026-05-06 09:08 | 30.58593 | 30.85565 | 34119 ft | 453 kts | 313° |
| 2026-05-06 09:08 | 30.63181 | 30.80529 | 34109 ft | 453 kts | 313° |
| 2026-05-06 09:09 | 30.67762 | 30.75493 | 34117 ft | 453 kts | 313° |
| 2026-05-06 09:09 | 30.72338 | 30.70456 | 34112 ft | 453 kts | 313° |
| 2026-05-06 09:10 | 30.76810 | 30.65503 | 34109 ft | 453 kts | 313° |
| 2026-05-06 09:10 | 30.81465 | 30.60348 | 34113 ft | 453 kts | 313° |
| 2026-05-06 09:11 | 30.85990 | 30.55342 | 34111 ft | 453 kts | 313° |
| 2026-05-06 09:11 | 30.90566 | 30.50278 | 34106 ft | 453 kts | 313° |
| 2026-05-06 09:12 | 30.95131 | 30.45218 | 34106 ft | 453 kts | 313° |
| 2026-05-06 09:12 | 30.99692 | 30.40156 | 34116 ft | 453 kts | 313° |
| 2026-05-06 09:13 | 31.04251 | 30.35092 | 34112 ft | 453 kts | 313° |
| 2026-05-06 09:13 | 31.08596 | 30.29811 | 34111 ft | 448 kts | 304° |
| 2026-05-06 09:14 | 31.11447 | 30.23438 | 34118 ft | 443 kts | 287° |
| 2026-05-06 09:14 | 31.13154 | 30.16538 | 34124 ft | 443 kts | 284° |
| 2026-05-06 09:15 | 31.14824 | 30.09619 | 34105 ft | 443 kts | 285° |
| 2026-05-06 09:15 | 31.16866 | 30.02902 | 34119 ft | 445 kts | 294° |
| 2026-05-06 09:16 | 31.20180 | 29.96719 | 34131 ft | 449 kts | 307° |
| 2026-05-06 09:16 | 31.24733 | 29.91682 | 34155 ft | 455 kts | 320° |
| 2026-05-06 09:17 | 31.30177 | 29.87841 | 34128 ft | 458 kts | 328° |
| 2026-05-06 09:17 | 31.35853 | 29.84422 | 34128 ft | 459 kts | 328° |
| 2026-05-06 09:18 | 31.41506 | 29.80969 | 34131 ft | 457 kts | 328° |
| 2026-05-06 09:18 | 31.47074 | 29.77485 | 34129 ft | 456 kts | 328° |
| 2026-05-06 09:19 | 31.52668 | 29.73954 | 34127 ft | 456 kts | 328° |
| 2026-05-06 09:19 | 31.58217 | 29.70446 | 34131 ft | 454 kts | 327° |
| 2026-05-06 09:20 | 31.63779 | 29.66926 | 34130 ft | 454 kts | 327° |
| 2026-05-06 09:20 | 31.69319 | 29.63416 | 34129 ft | 454 kts | 327° |
| 2026-05-06 09:21 | 31.74899 | 29.59876 | 34132 ft | 454 kts | 327° |
| 2026-05-06 09:21 | 31.80458 | 29.56346 | 34132 ft | 454 kts | 327° |
| 2026-05-06 09:22 | 31.86001 | 29.52820 | 34132 ft | 452 kts | 328° |
| 2026-05-06 09:22 | 31.91429 | 29.49365 | 34132 ft | 451 kts | 328° |
| 2026-05-06 09:23 | 31.97049 | 29.45778 | 34134 ft | 451 kts | 328° |
| 2026-05-06 09:23 | 32.02565 | 29.42252 | 34129 ft | 451 kts | 328° |
| 2026-05-06 09:24 | 32.08075 | 29.38731 | 34131 ft | 451 kts | 328° |
| 2026-05-06 09:24 | 32.13587 | 29.35215 | 34136 ft | 450 kts | 328° |
| 2026-05-06 09:25 | 32.19101 | 29.31696 | 34129 ft | 450 kts | 328° |
| 2026-05-06 09:25 | 32.24607 | 29.28172 | 34127 ft | 450 kts | 328° |
| 2026-05-06 09:26 | 32.30115 | 29.24640 | 34131 ft | 450 kts | 328° |
| 2026-05-06 09:26 | 32.35616 | 29.21110 | 34129 ft | 450 kts | 328° |
| 2026-05-06 09:27 | 32.41078 | 29.17601 | 34129 ft | 450 kts | 328° |
| 2026-05-06 09:27 | 32.46577 | 29.14063 | 34126 ft | 450 kts | 328° |
| 2026-05-06 09:28 | 32.52076 | 29.10521 | 34126 ft | 450 kts | 328° |
| 2026-05-06 09:28 | 32.57572 | 29.06975 | 34126 ft | 450 kts | 328° |
| 2026-05-06 09:29 | 32.63073 | 29.03422 | 34128 ft | 450 kts | 328° |
| 2026-05-06 09:29 | 32.68566 | 28.99868 | 34137 ft | 449 kts | 328° |
| 2026-05-06 09:30 | 32.74035 | 28.96326 | 34128 ft | 447 kts | 328° |
| 2026-05-06 09:30 | 32.79496 | 28.92783 | 34124 ft | 447 kts | 328° |
| 2026-05-06 09:31 | 32.84953 | 28.89237 | 34126 ft | 447 kts | 328° |
| 2026-05-06 09:31 | 32.90415 | 28.85683 | 34124 ft | 447 kts | 328° |
| 2026-05-06 09:32 | 32.95818 | 28.82157 | 34145 ft | 447 kts | 328° |
| 2026-05-06 09:32 | 33.01294 | 28.78569 | 34120 ft | 444 kts | 328° |
| 2026-05-06 09:33 | 33.06719 | 28.75018 | 34124 ft | 444 kts | 328° |
| 2026-05-06 09:33 | 33.12132 | 28.71475 | 34126 ft | 444 kts | 328° |
| 2026-05-06 09:34 | 33.17513 | 28.67949 | 34120 ft | 444 kts | 328° |
| 2026-05-06 09:34 | 33.22903 | 28.64413 | 34121 ft | 444 kts | 328° |
| 2026-05-06 09:35 | 33.28311 | 28.60860 | 34123 ft | 443 kts | 328° |
| 2026-05-06 09:35 | 33.33709 | 28.57308 | 34122 ft | 443 kts | 328° |
| 2026-05-06 09:36 | 33.39100 | 28.53755 | 34118 ft | 443 kts | 328° |
| 2026-05-06 09:36 | 33.44489 | 28.50199 | 34119 ft | 442 kts | 328° |
| 2026-05-06 09:37 | 33.49880 | 28.46636 | 34117 ft | 442 kts | 328° |
| 2026-05-06 09:37 | 33.55258 | 28.43077 | 34123 ft | 441 kts | 328° |
| 2026-05-06 09:38 | 33.60627 | 28.39519 | 34118 ft | 440 kts | 328° |
| 2026-05-06 09:38 | 33.65984 | 28.35963 | 34119 ft | 440 kts | 328° |
| 2026-05-06 09:39 | 33.71331 | 28.32395 | 34118 ft | 439 kts | 328° |
| 2026-05-06 09:39 | 33.76672 | 28.28827 | 34119 ft | 439 kts | 328° |
| 2026-05-06 09:40 | 33.81113 | 28.25856 | 34116 ft | 439 kts | 328° |
| 2026-05-06 09:40 | 33.89098 | 28.20470 | 34120 ft | 438 kts | 328° |
| 2026-05-06 09:41 | 33.94419 | 28.16874 | 34113 ft | 438 kts | 328° |
| 2026-05-06 09:41 | 33.99733 | 28.13279 | 34118 ft | 438 kts | 328° |
| 2026-05-06 09:42 | 34.05051 | 28.09676 | 34114 ft | 438 kts | 328° |
| 2026-05-06 09:42 | 34.10332 | 28.06094 | 34114 ft | 438 kts | 328° |
| 2026-05-06 09:43 | 34.15633 | 28.02493 | 34113 ft | 437 kts | 328° |
| 2026-05-06 09:43 | 34.20925 | 27.98892 | 34111 ft | 437 kts | 328° |
| 2026-05-06 09:44 | 34.26220 | 27.95284 | 34116 ft | 437 kts | 328° |
| 2026-05-06 09:44 | 34.31512 | 27.91674 | 34113 ft | 437 kts | 328° |
| 2026-05-06 09:45 | 34.36737 | 27.87915 | 34122 ft | 436 kts | 326° |
| 2026-05-06 09:45 | 34.41886 | 27.84036 | 34114 ft | 436 kts | 326° |
| 2026-05-06 09:46 | 34.47046 | 27.80187 | 34111 ft | 436 kts | 326° |
| 2026-05-06 09:46 | 34.52223 | 27.76356 | 34111 ft | 436 kts | 327° |
| 2026-05-06 09:47 | 34.57403 | 27.72526 | 34113 ft | 436 kts | 327° |
| 2026-05-06 09:47 | 34.62580 | 27.68693 | 34113 ft | 436 kts | 326° |
| 2026-05-06 09:48 | 34.67757 | 27.64854 | 34116 ft | 436 kts | 326° |
| 2026-05-06 09:48 | 34.72905 | 27.61031 | 34110 ft | 436 kts | 326° |
| 2026-05-06 09:49 | 34.78122 | 27.57150 | 34111 ft | 436 kts | 326° |
| 2026-05-06 09:49 | 34.83242 | 27.53336 | 34108 ft | 436 kts | 326° |
| 2026-05-06 09:50 | 34.88417 | 27.49475 | 34110 ft | 436 kts | 326° |
| 2026-05-06 09:50 | 34.93534 | 27.45651 | 34112 ft | 435 kts | 327° |
| 2026-05-06 09:51 | 34.98743 | 27.41753 | 34108 ft | 434 kts | 327° |
| 2026-05-06 09:51 | 35.03889 | 27.37890 | 34107 ft | 434 kts | 327° |
| 2026-05-06 09:52 | 35.09031 | 27.34011 | 34107 ft | 434 kts | 327° |
| 2026-05-06 09:52 | 35.14179 | 27.30133 | 34109 ft | 434 kts | 327° |
| 2026-05-06 09:53 | 35.19322 | 27.26259 | 34107 ft | 434 kts | 327° |
| 2026-05-06 09:53 | 35.24466 | 27.22381 | 34110 ft | 434 kts | 327° |
| 2026-05-06 09:54 | 35.29615 | 27.18493 | 34380 ft | 435 kts | 327° |
| 2026-05-06 09:54 | 35.32189 | 27.16547 | 34573 ft | 434 kts | 327° |
| 2026-05-06 09:54 | 35.34751 | 27.14610 | 34783 ft | 433 kts | 327° |
| 2026-05-06 09:55 | 35.37323 | 27.12662 | 34976 ft | 433 kts | 327° |
| 2026-05-06 09:55 | 35.39879 | 27.10726 | 35142 ft | 433 kts | 327° |
| 2026-05-06 09:55 | 35.42437 | 27.08786 | 35341 ft | 432 kts | 327° |
| 2026-05-06 09:55 | 35.44995 | 27.06845 | 35493 ft | 432 kts | 326° |
| 2026-05-06 09:56 | 35.47552 | 27.04903 | 35691 ft | 431 kts | 327° |
| 2026-05-06 09:56 | 35.50093 | 27.02972 | 35906 ft | 429 kts | 327° |
| 2026-05-06 09:56 | 35.52628 | 27.01044 | 36064 ft | 428 kts | 326° |
| 2026-05-06 09:56 | 35.55164 | 26.99114 | 36096 ft | 428 kts | 326° |
| 2026-05-06 09:57 | 35.60231 | 26.95252 | 36108 ft | 429 kts | 326° |
| 2026-05-06 09:57 | 35.65304 | 26.91381 | 36112 ft | 429 kts | 326° |
| 2026-05-06 09:58 | 35.70371 | 26.87508 | 36113 ft | 429 kts | 326° |
| 2026-05-06 09:58 | 35.75435 | 26.83622 | 36122 ft | 429 kts | 326° |
| 2026-05-06 09:59 | 35.80458 | 26.79752 | 36116 ft | 428 kts | 326° |
| 2026-05-06 09:59 | 35.85509 | 26.75866 | 36115 ft | 428 kts | 326° |
| 2026-05-06 10:00 | 35.90564 | 26.71978 | 36118 ft | 428 kts | 326° |
| 2026-05-06 10:00 | 35.95616 | 26.68087 | 36118 ft | 428 kts | 326° |
| 2026-05-06 10:01 | 36.00667 | 26.64191 | 36116 ft | 428 kts | 326° |
| 2026-05-06 10:01 | 36.05710 | 26.60296 | 36126 ft | 427 kts | 326° |
| 2026-05-06 10:02 | 36.10740 | 26.56404 | 36101 ft | 426 kts | 326° |
| 2026-05-06 10:02 | 36.15777 | 26.52501 | 36115 ft | 427 kts | 326° |
| 2026-05-06 10:03 | 36.20815 | 26.48591 | 36121 ft | 428 kts | 326° |
| 2026-05-06 10:03 | 36.25855 | 26.44674 | 36121 ft | 428 kts | 326° |
| 2026-05-06 10:04 | 36.30894 | 26.40751 | 36131 ft | 427 kts | 326° |
| 2026-05-06 10:04 | 36.35906 | 26.36843 | 36122 ft | 427 kts | 326° |
| 2026-05-06 10:05 | 36.40936 | 26.32915 | 36115 ft | 427 kts | 326° |
| 2026-05-06 10:05 | 36.45960 | 26.28976 | 36119 ft | 427 kts | 326° |
| 2026-05-06 10:06 | 36.50982 | 26.25022 | 36115 ft | 427 kts | 326° |
| 2026-05-06 10:06 | 36.55986 | 26.21088 | 36124 ft | 429 kts | 326° |
| 2026-05-06 10:07 | 36.61034 | 26.17119 | 36127 ft | 429 kts | 326° |
| 2026-05-06 10:07 | 36.66085 | 26.13145 | 36125 ft | 429 kts | 326° |
| 2026-05-06 10:08 | 36.71130 | 26.09169 | 36122 ft | 429 kts | 326° |
| 2026-05-06 10:08 | 36.76170 | 26.05189 | 36123 ft | 429 kts | 326° |
| 2026-05-06 10:09 | 36.81210 | 26.01204 | 36121 ft | 429 kts | 326° |
| 2026-05-06 10:09 | 36.86248 | 25.97213 | 36121 ft | 428 kts | 326° |
| 2026-05-06 10:10 | 36.91282 | 25.93221 | 36119 ft | 429 kts | 326° |
| 2026-05-06 10:10 | 36.96324 | 25.89215 | 36119 ft | 430 kts | 326° |
| 2026-05-06 10:11 | 37.01377 | 25.85193 | 36116 ft | 430 kts | 326° |
| 2026-05-06 10:11 | 37.06422 | 25.81173 | 36117 ft | 430 kts | 326° |
| 2026-05-06 10:12 | 37.11470 | 25.77143 | 36123 ft | 430 kts | 326° |
| 2026-05-06 10:12 | 37.16502 | 25.73108 | 36111 ft | 429 kts | 326° |
| 2026-05-06 10:13 | 37.21527 | 25.69063 | 36112 ft | 429 kts | 326° |
| 2026-05-06 10:13 | 37.26527 | 25.65043 | 36112 ft | 429 kts | 326° |
| 2026-05-06 10:14 | 37.31592 | 25.60972 | 36110 ft | 431 kts | 326° |
| 2026-05-06 10:14 | 37.36612 | 25.56932 | 36105 ft | 431 kts | 325° |
| 2026-05-06 10:15 | 37.41661 | 25.52862 | 36104 ft | 430 kts | 326° |
| 2026-05-06 10:15 | 37.46694 | 25.48799 | 36103 ft | 430 kts | 326° |
| 2026-05-06 10:16 | 37.51730 | 25.44726 | 36103 ft | 430 kts | 326° |
| 2026-05-06 10:16 | 37.56766 | 25.40647 | 36104 ft | 430 kts | 326° |
| 2026-05-06 10:17 | 37.61797 | 25.36565 | 36104 ft | 430 kts | 326° |
| 2026-05-06 10:17 | 37.66827 | 25.32477 | 36094 ft | 429 kts | 326° |
| 2026-05-06 10:18 | 37.71827 | 25.28407 | 36107 ft | 431 kts | 326° |
| 2026-05-06 10:18 | 37.76859 | 25.24304 | 36108 ft | 431 kts | 326° |
| 2026-05-06 10:19 | 37.81898 | 25.20190 | 36105 ft | 431 kts | 326° |
| 2026-05-06 10:19 | 37.86904 | 25.16081 | 36105 ft | 431 kts | 326° |
| 2026-05-06 10:20 | 37.91927 | 25.11944 | 36105 ft | 431 kts | 326° |
| 2026-05-06 10:20 | 37.96957 | 25.07807 | 36102 ft | 431 kts | 326° |
| 2026-05-06 10:21 | 38.01980 | 25.03677 | 36102 ft | 431 kts | 326° |
| 2026-05-06 10:21 | 38.07010 | 24.99535 | 36099 ft | 431 kts | 325° |
| 2026-05-06 10:22 | 38.12055 | 24.95374 | 36098 ft | 433 kts | 325° |
| 2026-05-06 10:22 | 38.17100 | 24.91204 | 36134 ft | 433 kts | 326° |
| 2026-05-06 10:23 | 38.22131 | 24.87041 | 36100 ft | 431 kts | 326° |
| 2026-05-06 10:23 | 38.27151 | 24.82880 | 36100 ft | 431 kts | 326° |
| 2026-05-06 10:24 | 38.32172 | 24.78711 | 36100 ft | 431 kts | 326° |
| 2026-05-06 10:24 | 38.37157 | 24.74564 | 36094 ft | 431 kts | 326° |
| 2026-05-06 10:25 | 38.42171 | 24.70386 | 36094 ft | 431 kts | 326° |
| 2026-05-06 10:25 | 38.47189 | 24.66199 | 36095 ft | 430 kts | 326° |
| 2026-05-06 10:26 | 38.52205 | 24.62005 | 36094 ft | 431 kts | 326° |
| 2026-05-06 10:26 | 38.56365 | 24.58511 | 36094 ft | 431 kts | 326° |
| 2026-05-06 10:27 | 38.61362 | 24.54296 | 36091 ft | 431 kts | 326° |
| 2026-05-06 10:27 | 38.66370 | 24.50080 | 36091 ft | 431 kts | 326° |
| 2026-05-06 10:28 | 38.71377 | 24.45865 | 36095 ft | 430 kts | 326° |
| 2026-05-06 10:28 | 38.76375 | 24.41653 | 36092 ft | 430 kts | 326° |
| 2026-05-06 10:29 | 38.81371 | 24.37435 | 36084 ft | 430 kts | 325° |
| 2026-05-06 10:29 | 38.86381 | 24.33196 | 36091 ft | 432 kts | 325° |
| 2026-05-06 10:30 | 38.91399 | 24.28945 | 36091 ft | 432 kts | 325° |
| 2026-05-06 10:30 | 38.96423 | 24.24681 | 36102 ft | 432 kts | 325° |
| 2026-05-06 10:31 | 39.01399 | 24.20451 | 36089 ft | 431 kts | 326° |
| 2026-05-06 10:31 | 39.06407 | 24.16186 | 36089 ft | 431 kts | 325° |
| 2026-05-06 10:32 | 39.11412 | 24.11916 | 36086 ft | 432 kts | 325° |
| 2026-05-06 10:32 | 39.16414 | 24.07641 | 36086 ft | 431 kts | 325° |
| 2026-05-06 10:33 | 39.21419 | 24.03357 | 36101 ft | 433 kts | 325° |
| 2026-05-06 10:33 | 39.26432 | 23.99042 | 36084 ft | 432 kts | 325° |
| 2026-05-06 10:34 | 39.31435 | 23.94721 | 36086 ft | 432 kts | 325° |
| 2026-05-06 10:34 | 39.36417 | 23.90425 | 36086 ft | 432 kts | 325° |
| 2026-05-06 10:35 | 39.41420 | 23.86111 | 36083 ft | 432 kts | 325° |
| 2026-05-06 10:35 | 39.46425 | 23.81789 | 36083 ft | 432 kts | 325° |
| 2026-05-06 10:36 | 39.51422 | 23.77466 | 36083 ft | 432 kts | 325° |
| 2026-05-06 10:36 | 39.56416 | 23.73138 | 36080 ft | 433 kts | 325° |
| 2026-05-06 10:37 | 39.61395 | 23.68815 | 36083 ft | 434 kts | 325° |
| 2026-05-06 10:37 | 39.66406 | 23.64457 | 36083 ft | 434 kts | 325° |
| 2026-05-06 10:38 | 39.71420 | 23.60089 | 36083 ft | 434 kts | 325° |
| 2026-05-06 10:38 | 39.76432 | 23.55714 | 36084 ft | 434 kts | 325° |
| 2026-05-06 10:39 | 39.81444 | 23.51332 | 36084 ft | 434 kts | 325° |
| 2026-05-06 10:39 | 39.86421 | 23.46972 | 36081 ft | 434 kts | 325° |
| 2026-05-06 10:40 | 39.91434 | 23.42573 | 36073 ft | 434 kts | 324° |
| 2026-05-06 10:40 | 39.96460 | 23.38135 | 36080 ft | 435 kts | 324° |
| 2026-05-06 10:41 | 40.01473 | 23.33700 | 36078 ft | 435 kts | 324° |
| 2026-05-06 10:41 | 40.06483 | 23.29271 | 36078 ft | 435 kts | 324° |
| 2026-05-06 10:42 | 40.11459 | 23.24871 | 36078 ft | 435 kts | 324° |
| 2026-05-06 10:42 | 40.16467 | 23.20437 | 36075 ft | 435 kts | 324° |
| 2026-05-06 10:43 | 40.21473 | 23.15996 | 36075 ft | 435 kts | 324° |
| 2026-05-06 10:44 | 40.28973 | 23.09328 | 36060 ft | 435 kts | 324° |
| 2026-05-06 10:44 | 40.33998 | 23.04850 | 36072 ft | 436 kts | 324° |
| 2026-05-06 10:45 | 40.39020 | 23.00366 | 36074 ft | 437 kts | 324° |
| 2026-05-06 10:45 | 40.44043 | 22.95874 | 36075 ft | 436 kts | 324° |
| 2026-05-06 10:46 | 40.49061 | 22.91377 | 36075 ft | 437 kts | 324° |
| 2026-05-06 10:46 | 40.54079 | 22.86873 | 36075 ft | 437 kts | 324° |
| 2026-05-06 10:47 | 40.59095 | 22.82361 | 36071 ft | 437 kts | 324° |
| 2026-05-06 10:47 | 40.64103 | 22.77835 | 36057 ft | 437 kts | 324° |
| 2026-05-06 10:48 | 40.69118 | 22.73279 | 36065 ft | 439 kts | 324° |
| 2026-05-06 10:48 | 40.74117 | 22.68748 | 36054 ft | 439 kts | 324° |
| 2026-05-06 10:49 | 40.79158 | 22.64178 | 36051 ft | 440 kts | 324° |
| 2026-05-06 10:49 | 40.84178 | 22.59621 | 36053 ft | 440 kts | 324° |
| 2026-05-06 10:50 | 40.89217 | 22.55039 | 36054 ft | 439 kts | 324° |
| 2026-05-06 10:50 | 40.94259 | 22.50445 | 36053 ft | 440 kts | 323° |
| 2026-05-06 10:51 | 40.99291 | 22.45853 | 36060 ft | 439 kts | 324° |
| 2026-05-06 10:51 | 41.04340 | 22.41235 | 36055 ft | 441 kts | 323° |
| 2026-05-06 10:52 | 41.09387 | 22.36610 | 36056 ft | 441 kts | 323° |
| 2026-05-06 10:52 | 41.14432 | 22.31976 | 36059 ft | 441 kts | 323° |
| 2026-05-06 10:53 | 41.19480 | 22.27333 | 36060 ft | 441 kts | 323° |
| 2026-05-06 10:53 | 41.24494 | 22.22712 | 36066 ft | 441 kts | 323° |
| 2026-05-06 10:54 | 41.29553 | 22.18042 | 36056 ft | 441 kts | 323° |
| 2026-05-06 10:54 | 41.34548 | 22.13393 | 36051 ft | 441 kts | 323° |
| 2026-05-06 10:55 | 41.39578 | 22.08702 | 36055 ft | 443 kts | 323° |
| 2026-05-06 10:55 | 41.44634 | 22.04002 | 36050 ft | 443 kts | 323° |
| 2026-05-06 10:56 | 41.49695 | 21.99293 | 36055 ft | 443 kts | 323° |
| 2026-05-06 10:56 | 41.54676 | 21.94650 | 36050 ft | 443 kts | 323° |
| 2026-05-06 10:57 | 41.59802 | 21.89860 | 36047 ft | 443 kts | 323° |
| 2026-05-06 10:57 | 41.64858 | 21.85127 | 36048 ft | 443 kts | 323° |
| 2026-05-06 10:58 | 41.69911 | 21.80390 | 36045 ft | 443 kts | 323° |
| 2026-05-06 10:58 | 41.74972 | 21.75631 | 36049 ft | 445 kts | 323° |
| 2026-05-06 10:59 | 41.80042 | 21.70859 | 36050 ft | 445 kts | 323° |
| 2026-05-06 10:59 | 41.85113 | 21.66078 | 36047 ft | 445 kts | 322° |
| 2026-05-06 11:00 | 41.90143 | 21.61319 | 36046 ft | 445 kts | 323° |
| 2026-05-06 11:00 | 41.95214 | 21.56517 | 36048 ft | 445 kts | 323° |
| 2026-05-06 11:01 | 42.00268 | 21.51709 | 36060 ft | 445 kts | 322° |
| 2026-05-06 11:01 | 42.05319 | 21.46874 | 36049 ft | 446 kts | 322° |
| 2026-05-06 11:02 | 42.10373 | 21.42044 | 36047 ft | 446 kts | 322° |
| 2026-05-06 11:02 | 42.15429 | 21.37215 | 36048 ft | 445 kts | 322° |
| 2026-05-06 11:03 | 42.20456 | 21.32322 | 36054 ft | 444 kts | 319° |
| 2026-05-06 11:03 | 42.24748 | 21.26388 | 36053 ft | 442 kts | 309° |
| 2026-05-06 11:04 | 42.28643 | 21.19959 | 36056 ft | 442 kts | 308° |
| 2026-05-06 11:04 | 42.32506 | 21.13597 | 36061 ft | 443 kts | 308° |
| 2026-05-06 11:05 | 42.36413 | 21.07269 | 36064 ft | 444 kts | 308° |
| 2026-05-06 11:05 | 42.40434 | 21.00796 | 36067 ft | 444 kts | 309° |
| 2026-05-06 11:06 | 42.44414 | 20.94381 | 36071 ft | 445 kts | 308° |
| 2026-05-06 11:06 | 42.48386 | 20.87961 | 36076 ft | 444 kts | 308° |
| 2026-05-06 11:07 | 42.52347 | 20.81544 | 36066 ft | 444 kts | 308° |
| 2026-05-06 11:07 | 42.56316 | 20.75101 | 36062 ft | 446 kts | 308° |
| 2026-05-06 11:08 | 42.60285 | 20.68641 | 36054 ft | 446 kts | 308° |
| 2026-05-06 11:08 | 42.64257 | 20.62160 | 36042 ft | 446 kts | 308° |
| 2026-05-06 11:09 | 42.68221 | 20.55680 | 36035 ft | 446 kts | 308° |
| 2026-05-06 11:09 | 42.72186 | 20.49185 | 36035 ft | 446 kts | 308° |
| 2026-05-06 11:10 | 42.76143 | 20.42668 | 36041 ft | 446 kts | 307° |
| 2026-05-06 11:10 | 42.80080 | 20.36134 | 36034 ft | 447 kts | 307° |
| 2026-05-06 11:11 | 42.84470 | 20.30220 | 36032 ft | 451 kts | 322° |
| 2026-05-06 11:11 | 42.89847 | 20.25751 | 36019 ft | 454 kts | 328° |
| 2026-05-06 11:12 | 42.95367 | 20.21567 | 36018 ft | 454 kts | 327° |
| 2026-05-06 11:12 | 43.00836 | 20.17262 | 36011 ft | 453 kts | 326° |
| 2026-05-06 11:13 | 43.06267 | 20.12874 | 36009 ft | 454 kts | 326° |
| 2026-05-06 11:13 | 43.11705 | 20.08448 | 36009 ft | 455 kts | 326° |
| 2026-05-06 11:14 | 43.17147 | 20.04005 | 36005 ft | 455 kts | 326° |
| 2026-05-06 11:14 | 43.21656 | 20.00322 | 36015 ft | 455 kts | 326° |
| 2026-05-06 11:15 | 43.28022 | 19.95114 | 35998 ft | 455 kts | 326° |
| 2026-05-06 11:15 | 43.32538 | 19.91411 | 35996 ft | 455 kts | 326° |
| 2026-05-06 11:16 | 43.37965 | 19.86951 | 35993 ft | 455 kts | 326° |
| 2026-05-06 11:16 | 43.44298 | 19.81734 | 35993 ft | 457 kts | 326° |
| 2026-05-06 11:17 | 43.48862 | 19.77969 | 35986 ft | 456 kts | 326° |
| 2026-05-06 11:17 | 43.54205 | 19.73549 | 35982 ft | 456 kts | 325° |
| 2026-05-06 11:18 | 43.59700 | 19.68968 | 35978 ft | 456 kts | 325° |
| 2026-05-06 11:18 | 43.65138 | 19.64435 | 35983 ft | 458 kts | 325° |
| 2026-05-06 11:19 | 43.70594 | 19.59888 | 35979 ft | 458 kts | 325° |
| 2026-05-06 11:19 | 43.76022 | 19.55360 | 35980 ft | 457 kts | 326° |
| 2026-05-06 11:20 | 43.81466 | 19.50813 | 35962 ft | 457 kts | 325° |
| 2026-05-06 11:20 | 43.86908 | 19.46257 | 35966 ft | 457 kts | 325° |
| 2026-05-06 11:21 | 43.92363 | 19.41679 | 35968 ft | 458 kts | 326° |
| 2026-05-06 11:21 | 43.98196 | 19.38066 | 35976 ft | 465 kts | 341° |
| 2026-05-06 11:22 | 44.04591 | 19.36343 | 35970 ft | 469 kts | 347° |
| 2026-05-06 11:22 | 44.11044 | 19.34918 | 35968 ft | 469 kts | 346° |
| 2026-05-06 11:23 | 44.17464 | 19.33326 | 35970 ft | 469 kts | 345° |
| 2026-05-06 11:23 | 44.23868 | 19.31634 | 35961 ft | 469 kts | 345° |
| 2026-05-06 11:24 | 44.30247 | 19.29921 | 35956 ft | 470 kts | 345° |
| 2026-05-06 11:24 | 44.36709 | 19.28186 | 35956 ft | 470 kts | 345° |
| 2026-05-06 11:25 | 44.43137 | 19.26463 | 35958 ft | 470 kts | 345° |
| 2026-05-06 11:25 | 44.49526 | 19.24750 | 35954 ft | 470 kts | 345° |
| 2026-05-06 11:26 | 44.55907 | 19.23032 | 35955 ft | 470 kts | 345° |
| 2026-05-06 11:26 | 44.62367 | 19.21290 | 35955 ft | 469 kts | 345° |
| 2026-05-06 11:27 | 44.68793 | 19.19551 | 35955 ft | 471 kts | 344° |
| 2026-05-06 11:27 | 44.75231 | 19.17807 | 35964 ft | 471 kts | 344° |
| 2026-05-06 11:28 | 44.81670 | 19.16052 | 35960 ft | 471 kts | 344° |
| 2026-05-06 11:28 | 44.88108 | 19.14290 | 35963 ft | 471 kts | 344° |
| 2026-05-06 11:29 | 44.94449 | 19.12557 | 35973 ft | 471 kts | 344° |
| 2026-05-06 11:29 | 45.00966 | 19.10775 | 35964 ft | 470 kts | 344° |
| 2026-05-06 11:30 | 45.07398 | 19.09012 | 35964 ft | 470 kts | 344° |
| 2026-05-06 11:30 | 45.13630 | 19.06682 | 35961 ft | 461 kts | 332° |
| 2026-05-06 11:31 | 45.19006 | 19.01990 | 35964 ft | 451 kts | 317° |
| 2026-05-06 11:31 | 45.23838 | 18.96327 | 35964 ft | 451 kts | 316° |
| 2026-05-06 11:32 | 45.28742 | 18.90761 | 35963 ft | 452 kts | 317° |
| 2026-05-06 11:32 | 45.33744 | 18.85326 | 35968 ft | 453 kts | 318° |
| 2026-05-06 11:33 | 45.38786 | 18.79915 | 35968 ft | 454 kts | 318° |
| 2026-05-06 11:33 | 45.43825 | 18.74499 | 35960 ft | 453 kts | 318° |
| 2026-05-06 11:34 | 45.48847 | 18.69084 | 35957 ft | 453 kts | 318° |
| 2026-05-06 11:34 | 45.53795 | 18.63733 | 35941 ft | 453 kts | 318° |
| 2026-05-06 11:35 | 45.58868 | 18.58232 | 35947 ft | 455 kts | 318° |
| 2026-05-06 11:35 | 45.63818 | 18.52853 | 35958 ft | 455 kts | 317° |
| 2026-05-06 11:36 | 45.68944 | 18.47270 | 35942 ft | 454 kts | 317° |
| 2026-05-06 11:36 | 45.74101 | 18.42030 | 35946 ft | 459 kts | 325° |
| 2026-05-06 11:37 | 45.79815 | 18.37939 | 35956 ft | 463 kts | 330° |
| 2026-05-06 11:37 | 45.85718 | 18.34135 | 35958 ft | 466 kts | 330° |
| 2026-05-06 11:38 | 45.91611 | 18.30272 | 35973 ft | 466 kts | 329° |
| 2026-05-06 11:38 | 45.97480 | 18.26344 | 35967 ft | 465 kts | 329° |
| 2026-05-06 11:39 | 46.03341 | 18.22392 | 35968 ft | 465 kts | 329° |
| 2026-05-06 11:39 | 46.09199 | 18.18431 | 35963 ft | 465 kts | 329° |
| 2026-05-06 11:40 | 46.15069 | 18.14451 | 35965 ft | 466 kts | 329° |
| 2026-05-06 11:40 | 46.20944 | 18.10464 | 35943 ft | 466 kts | 329° |
| 2026-05-06 11:41 | 46.26815 | 18.06472 | 35937 ft | 466 kts | 329° |
| 2026-05-06 11:41 | 46.32613 | 18.02517 | 35923 ft | 466 kts | 329° |
| 2026-05-06 11:42 | 46.38548 | 17.98457 | 35928 ft | 466 kts | 329° |
| 2026-05-06 11:42 | 46.44406 | 17.94442 | 35929 ft | 466 kts | 329° |
| 2026-05-06 11:43 | 46.50266 | 17.90407 | 35919 ft | 466 kts | 329° |
| 2026-05-06 11:43 | 46.56115 | 17.86352 | 35916 ft | 466 kts | 329° |
| 2026-05-06 11:44 | 46.64854 | 17.80302 | 35916 ft | 466 kts | 329° |
| 2026-05-06 11:44 | 46.70707 | 17.76247 | 35908 ft | 466 kts | 329° |
| 2026-05-06 11:45 | 46.76558 | 17.72185 | 35916 ft | 466 kts | 329° |
| 2026-05-06 11:45 | 46.82418 | 17.68107 | 35903 ft | 466 kts | 329° |
| 2026-05-06 11:46 | 46.88235 | 17.64047 | 35908 ft | 468 kts | 329° |
| 2026-05-06 11:46 | 46.94160 | 17.59901 | 35900 ft | 468 kts | 329° |
| 2026-05-06 11:47 | 47.00037 | 17.55781 | 35891 ft | 468 kts | 329° |
| 2026-05-06 11:47 | 47.05920 | 17.51647 | 35893 ft | 468 kts | 329° |
| 2026-05-06 11:48 | 47.11792 | 17.47509 | 35891 ft | 469 kts | 329° |
| 2026-05-06 11:48 | 47.17645 | 17.43374 | 35891 ft | 470 kts | 329° |
| 2026-05-06 11:49 | 47.23545 | 17.39193 | 35888 ft | 470 kts | 329° |
| 2026-05-06 11:49 | 47.29409 | 17.35000 | 35871 ft | 470 kts | 329° |
| 2026-05-06 11:50 | 47.35293 | 17.30794 | 35892 ft | 471 kts | 329° |
| 2026-05-06 11:50 | 47.41110 | 17.26639 | 35882 ft | 472 kts | 329° |
| 2026-05-06 11:51 | 47.47103 | 17.22353 | 35871 ft | 472 kts | 329° |
| 2026-05-06 11:51 | 47.53007 | 17.18121 | 35863 ft | 472 kts | 329° |
| 2026-05-06 11:52 | 47.58947 | 17.13851 | 35855 ft | 472 kts | 329° |
| 2026-05-06 11:52 | 47.64819 | 17.09619 | 35848 ft | 472 kts | 329° |
| 2026-05-06 11:53 | 47.70757 | 17.05288 | 35846 ft | 471 kts | 326° |
| 2026-05-06 11:53 | 47.75895 | 16.99556 | 35846 ft | 457 kts | 309° |
| 2026-05-06 11:54 | 47.80124 | 16.92547 | 35843 ft | 455 kts | 306° |
| 2026-05-06 11:54 | 47.84302 | 16.85470 | 35836 ft | 456 kts | 307° |
| 2026-05-06 11:55 | 47.88569 | 16.78512 | 35833 ft | 458 kts | 308° |
| 2026-05-06 11:55 | 47.92905 | 16.71553 | 35831 ft | 458 kts | 308° |
| 2026-05-06 11:56 | 47.97246 | 16.64585 | 35829 ft | 458 kts | 308° |
| 2026-05-06 11:56 | 48.01579 | 16.57606 | 35830 ft | 458 kts | 308° |
| 2026-05-06 11:57 | 48.05902 | 16.50617 | 35829 ft | 458 kts | 307° |
| 2026-05-06 11:57 | 48.10220 | 16.43618 | 35828 ft | 458 kts | 307° |
| 2026-05-06 11:58 | 48.14543 | 16.36595 | 35833 ft | 459 kts | 307° |
| 2026-05-06 11:58 | 48.18804 | 16.29650 | 35824 ft | 459 kts | 307° |
| 2026-05-06 11:59 | 48.23190 | 16.22483 | 35818 ft | 459 kts | 307° |
| 2026-05-06 11:59 | 48.27477 | 16.15459 | 35810 ft | 459 kts | 307° |
| 2026-05-06 12:00 | 48.31776 | 16.08363 | 35809 ft | 459 kts | 307° |
| 2026-05-06 12:00 | 48.36054 | 16.01249 | 35809 ft | 459 kts | 307° |
| 2026-05-06 12:01 | 48.40349 | 15.94131 | 35804 ft | 459 kts | 307° |
| 2026-05-06 12:01 | 48.44597 | 15.87092 | 35792 ft | 461 kts | 307° |
| 2026-05-06 12:02 | 48.48977 | 15.79820 | 35811 ft | 462 kts | 307° |
| 2026-05-06 12:02 | 48.53293 | 15.72634 | 35805 ft | 463 kts | 306° |
| 2026-05-06 12:03 | 48.56888 | 15.66631 | 35800 ft | 464 kts | 306° |
| 2026-05-06 12:03 | 48.61942 | 15.58176 | 35799 ft | 464 kts | 306° |
| 2026-05-06 12:04 | 48.66240 | 15.50958 | 35803 ft | 463 kts | 306° |
| 2026-05-06 12:04 | 48.70466 | 15.43841 | 35807 ft | 464 kts | 306° |
| 2026-05-06 12:05 | 48.74841 | 15.36454 | 35811 ft | 467 kts | 306° |
| 2026-05-06 12:05 | 48.78477 | 15.30298 | 35803 ft | 467 kts | 306° |
| 2026-05-06 12:06 | 48.82781 | 15.22993 | 35801 ft | 467 kts | 306° |
| 2026-05-06 12:06 | 48.87129 | 15.15567 | 35798 ft | 467 kts | 306° |
| 2026-05-06 12:07 | 48.91364 | 15.08266 | 35799 ft | 467 kts | 306° |
| 2026-05-06 12:07 | 48.95526 | 15.00634 | 35802 ft | 463 kts | 301° |
| 2026-05-06 12:08 | 48.99345 | 14.92756 | 35795 ft | 462 kts | 300° |
| 2026-05-06 12:08 | 49.03125 | 14.84828 | 35800 ft | 463 kts | 300° |
| 2026-05-06 12:09 | 49.06926 | 14.76906 | 35798 ft | 463 kts | 300° |
| 2026-05-06 12:09 | 49.10739 | 14.68976 | 35817 ft | 463 kts | 300° |
| 2026-05-06 12:10 | 49.14520 | 14.61094 | 35806 ft | 463 kts | 300° |
| 2026-05-06 12:10 | 49.18341 | 14.53104 | 35806 ft | 463 kts | 300° |
| 2026-05-06 12:11 | 49.22131 | 14.45155 | 35808 ft | 463 kts | 300° |
| 2026-05-06 12:11 | 49.25844 | 14.37345 | 35811 ft | 463 kts | 300° |
| 2026-05-06 12:12 | 49.29698 | 14.29210 | 35810 ft | 463 kts | 300° |
| 2026-05-06 12:12 | 49.33455 | 14.21258 | 35809 ft | 464 kts | 300° |
| 2026-05-06 12:13 | 49.37237 | 14.13231 | 35812 ft | 464 kts | 300° |
| 2026-05-06 12:13 | 49.41008 | 14.05203 | 35809 ft | 464 kts | 300° |
| 2026-05-06 12:14 | 49.44753 | 13.97139 | 35833 ft | 463 kts | 299° |
| 2026-05-06 12:14 | 49.48446 | 13.89143 | 35808 ft | 465 kts | 299° |
| 2026-05-06 12:15 | 49.52251 | 13.80943 | 35807 ft | 465 kts | 299° |
| 2026-05-06 12:15 | 49.56014 | 13.72834 | 35803 ft | 465 kts | 299° |
| 2026-05-06 12:16 | 49.59770 | 13.64718 | 35803 ft | 465 kts | 299° |
| 2026-05-06 12:16 | 49.63523 | 13.56580 | 35816 ft | 466 kts | 300° |
| 2026-05-06 12:17 | 49.67216 | 13.48547 | 35795 ft | 467 kts | 300° |
| 2026-05-06 12:17 | 49.71005 | 13.40282 | 35797 ft | 467 kts | 300° |
| 2026-05-06 12:18 | 49.74754 | 13.32077 | 35803 ft | 467 kts | 300° |
| 2026-05-06 12:18 | 49.78493 | 13.23869 | 35803 ft | 467 kts | 299° |
| 2026-05-06 12:19 | 49.82225 | 13.15651 | 35798 ft | 467 kts | 299° |
| 2026-05-06 12:19 | 49.85935 | 13.07453 | 35785 ft | 467 kts | 299° |
| 2026-05-06 12:20 | 49.89655 | 12.99211 | 35791 ft | 466 kts | 299° |
| 2026-05-06 12:20 | 49.93344 | 12.90923 | 35810 ft | 466 kts | 299° |
| 2026-05-06 12:21 | 49.97029 | 12.82632 | 35823 ft | 467 kts | 300° |
| 2026-05-06 12:21 | 50.00705 | 12.74390 | 35804 ft | 467 kts | 300° |
| 2026-05-06 12:22 | 50.04436 | 12.66021 | 35804 ft | 467 kts | 300° |
| 2026-05-06 12:22 | 50.08103 | 12.57769 | 35800 ft | 467 kts | 299° |
| 2026-05-06 12:23 | 50.11813 | 12.49394 | 35790 ft | 467 kts | 299° |
| 2026-05-06 12:23 | 50.15464 | 12.41090 | 35786 ft | 467 kts | 298° |
| 2026-05-06 12:24 | 50.18367 | 12.32171 | 35773 ft | 456 kts | 282° |
| 2026-05-06 12:24 | 50.19282 | 12.22652 | 35775 ft | 446 kts | 266° |
| 2026-05-06 12:25 | 50.19115 | 12.12903 | 35789 ft | 445 kts | 264° |
| 2026-05-06 12:25 | 50.18918 | 12.03255 | 35795 ft | 445 kts | 265° |
| 2026-05-06 12:26 | 50.18740 | 11.93591 | 35804 ft | 444 kts | 262° |
| 2026-05-06 12:26 | 50.17563 | 11.84246 | 35799 ft | 437 kts | 248° |
| 2026-05-06 12:27 | 50.14812 | 11.75886 | 35796 ft | 433 kts | 233° |
| 2026-05-06 12:27 | 50.11517 | 11.68051 | 35794 ft | 435 kts | 244° |
| 2026-05-06 12:28 | 50.09964 | 11.58913 | 35795 ft | 442 kts | 262° |
| 2026-05-06 12:28 | 50.09704 | 11.49306 | 35809 ft | 444 kts | 263° |
| 2026-05-06 12:29 | 50.09159 | 11.39727 | 35788 ft | 444 kts | 259° |
| 2026-05-06 12:29 | 50.08276 | 11.30301 | 35788 ft | 443 kts | 257° |
| 2026-05-06 12:30 | 50.07442 | 11.20811 | 35792 ft | 445 kts | 263° |
| 2026-05-06 12:30 | 50.07334 | 11.11095 | 35787 ft | 448 kts | 266° |
| 2026-05-06 12:31 | 50.07417 | 11.01397 | 35804 ft | 448 kts | 266° |
| 2026-05-06 12:31 | 50.07469 | 10.91607 | 35788 ft | 450 kts | 266° |
| 2026-05-06 12:32 | 50.07468 | 10.81920 | 35784 ft | 450 kts | 264° |
| 2026-05-06 12:32 | 50.06574 | 10.72403 | 35784 ft | 441 kts | 249° |
| 2026-05-06 12:33 | 50.03797 | 10.64001 | 35782 ft | 437 kts | 234° |
| 2026-05-06 12:33 | 50.00199 | 10.56382 | 35781 ft | 437 kts | 232° |
| 2026-05-06 12:34 | 49.96593 | 10.48766 | 35783 ft | 440 kts | 232° |